createdAt,value
2023-05-24T00:02:14.571Z,8.42
2023-05-24T00:04:42.522Z,8.41
2023-05-24T00:07:10.274Z,8.40
2023-05-24T00:09:39.331Z,8.38
2023-05-24T00:12:07.526Z,8.37
2023-05-24T00:14:35.381Z,8.35
2023-05-24T00:17:03.332Z,8.33
2023-05-24T00:19:31.088Z,8.32
2023-05-24T00:21:58.734Z,8.29
2023-05-24T00:24:26.415Z,8.26
2023-05-24T00:26:55.418Z,8.23
2023-05-24T00:29:23.068Z,8.20
2023-05-24T00:31:50.743Z,8.15
2023-05-24T00:34:18.704Z,8.16
2023-05-24T00:36:46.342Z,8.14
2023-05-24T00:39:13.995Z,8.12
2023-05-24T00:41:43.791Z,8.10
2023-05-24T00:44:12.908Z,8.08
2023-05-24T00:46:41.070Z,8.06
2023-05-24T00:49:10.958Z,8.05
2023-05-24T00:51:39.221Z,8.02
2023-05-24T00:54:07.819Z,7.95
2023-05-24T00:56:35.967Z,7.87
2023-05-24T00:59:04.229Z,7.76
2023-05-24T01:01:34.051Z,7.69
2023-05-24T01:04:02.194Z,7.64
2023-05-24T01:06:33.694Z,7.59
2023-05-24T01:09:13.040Z,7.51
2023-05-24T01:11:53.901Z,7.44
2023-05-24T01:14:30.145Z,7.38
2023-05-24T01:17:06.667Z,7.34
2023-05-24T01:19:53.497Z,7.27
2023-05-24T01:22:50.611Z,7.19
2023-05-24T01:25:47.983Z,7.12
2023-05-24T01:28:18.365Z,7.07
2023-05-24T01:30:46.519Z,7.00
2023-05-24T01:33:14.243Z,6.95
2023-05-24T01:35:42.581Z,6.91
2023-05-24T01:38:12.042Z,6.86
2023-05-24T01:40:41.760Z,6.82
2023-05-24T01:43:19.819Z,6.79
2023-05-24T01:45:57.497Z,6.74
2023-05-24T01:48:32.792Z,6.69
2023-05-24T01:51:01.581Z,6.64
2023-05-24T01:53:34.566Z,6.59
2023-05-24T01:56:04.992Z,6.56
2023-05-24T01:58:35.453Z,6.52
2023-05-24T02:01:03.811Z,6.50
2023-05-24T02:03:32.372Z,6.47
2023-05-24T02:06:00.147Z,6.41
2023-05-24T02:08:27.750Z,6.37
2023-05-24T02:10:55.481Z,6.34
2023-05-24T02:13:23.958Z,6.30
2023-05-24T02:15:54.765Z,6.29
2023-05-24T02:18:22.527Z,6.24
2023-05-24T02:20:50.100Z,6.21
2023-05-24T02:23:17.841Z,6.16
2023-05-24T02:25:45.425Z,6.13
2023-05-24T02:28:12.989Z,6.11
2023-05-24T02:30:44.618Z,6.08
2023-05-24T02:33:14.009Z,6.05
2023-05-24T02:35:42.317Z,6.02
2023-05-24T02:38:10.016Z,6.00
2023-05-24T02:40:37.587Z,5.98
2023-05-24T02:43:05.178Z,5.96
2023-05-24T02:45:33.155Z,5.94
2023-05-24T02:48:00.854Z,5.93
2023-05-24T02:50:29.817Z,5.93
2023-05-24T02:52:57.419Z,5.93
2023-05-24T02:55:26.825Z,5.92
2023-05-24T02:57:54.829Z,5.92
2023-05-24T03:00:22.728Z,5.92
2023-05-24T03:02:52.464Z,5.91
2023-05-24T03:05:20.122Z,5.89
2023-05-24T03:07:49.040Z,5.88
2023-05-24T03:10:16.878Z,5.86
2023-05-24T03:12:44.440Z,5.84
2023-05-24T03:15:12.432Z,5.82
2023-05-24T03:17:40.388Z,5.80
2023-05-24T03:20:09.058Z,5.78
2023-05-24T03:22:37.237Z,5.75
2023-05-24T03:25:08.636Z,5.74
2023-05-24T03:27:36.953Z,5.73
2023-05-24T03:30:06.669Z,5.71
2023-05-24T03:32:39.996Z,5.70
2023-05-24T03:35:08.214Z,5.68
2023-05-24T03:37:35.845Z,5.67
2023-05-24T03:40:04.585Z,5.67
2023-05-24T03:42:43.625Z,5.66
2023-05-24T03:45:16.061Z,5.65
2023-05-24T03:47:46.973Z,5.65
2023-05-24T03:50:14.653Z,5.65
2023-05-24T03:52:43.363Z,5.64
2023-05-24T03:55:11.650Z,5.63
2023-05-24T03:57:39.331Z,5.61
2023-05-24T04:00:09.837Z,5.61
2023-05-24T04:02:42.323Z,5.59
2023-05-24T04:05:10.765Z,5.58
2023-05-24T04:07:39.416Z,5.57
2023-05-24T04:10:08.772Z,5.56
2023-05-24T04:12:36.547Z,5.56
2023-05-24T04:15:10.002Z,5.55
2023-05-24T04:17:38.496Z,5.55
2023-05-24T04:20:09.634Z,5.55
2023-05-24T04:22:37.921Z,5.55
2023-05-24T04:25:06.714Z,5.57
2023-05-24T04:27:36.257Z,5.59
2023-05-24T04:30:04.243Z,5.62
2023-05-24T04:32:33.197Z,5.63
2023-05-24T04:35:02.571Z,5.67
2023-05-24T04:37:31.673Z,5.69
2023-05-24T04:39:59.259Z,5.73
2023-05-24T04:42:27.227Z,5.77
2023-05-24T04:44:54.840Z,5.83
2023-05-24T04:47:22.436Z,5.89
2023-05-24T04:49:51.649Z,5.97
2023-05-24T04:52:19.220Z,6.05
2023-05-24T04:54:46.926Z,6.12
2023-05-24T04:57:14.492Z,6.21
2023-05-24T04:59:42.604Z,6.29
2023-05-24T05:02:10.274Z,6.36
2023-05-24T05:04:37.937Z,6.43
2023-05-24T05:07:07.240Z,6.49
2023-05-24T05:09:34.801Z,6.54
2023-05-24T05:12:02.671Z,6.58
2023-05-24T05:14:30.276Z,6.63
2023-05-24T05:16:57.830Z,6.71
2023-05-24T05:19:25.614Z,6.77
2023-05-24T05:21:53.151Z,6.82
2023-05-24T05:24:22.313Z,6.88
2023-05-24T05:26:49.872Z,6.94
2023-05-24T05:29:17.394Z,7.01
2023-05-24T05:31:45.298Z,7.08
2023-05-24T05:34:12.919Z,7.16
2023-05-24T05:36:40.911Z,7.26
2023-05-24T05:39:10.362Z,7.35
2023-05-24T05:41:40.169Z,7.44
2023-05-24T05:44:07.764Z,7.53
2023-05-24T05:46:35.375Z,7.61
2023-05-24T05:49:02.975Z,7.71
2023-05-24T05:51:31.698Z,7.80
2023-05-24T05:53:59.249Z,7.91
2023-05-24T05:56:27.620Z,8.01
2023-05-24T05:58:56.623Z,8.10
2023-05-24T06:01:24.249Z,8.24
2023-05-24T06:03:52.370Z,8.37
2023-05-24T06:06:20.018Z,8.49
2023-05-24T06:08:47.573Z,8.58
2023-05-24T06:11:15.191Z,8.68
2023-05-24T06:13:42.729Z,8.78
2023-05-24T06:16:11.709Z,8.86
2023-05-24T06:18:45.052Z,8.95
2023-05-24T06:21:18.397Z,9.02
2023-05-24T06:23:45.933Z,9.08
2023-05-24T06:26:13.500Z,9.15
2023-05-24T06:28:41.062Z,9.22
2023-05-24T06:31:08.710Z,9.31
2023-05-24T06:33:38.264Z,9.41
2023-05-24T06:36:06.153Z,9.50
2023-05-24T06:38:34.228Z,9.59
2023-05-24T06:41:01.952Z,9.66
2023-05-24T06:43:30.658Z,9.73
2023-05-24T06:45:58.220Z,9.83
2023-05-24T06:48:26.549Z,9.90
2023-05-24T06:50:55.781Z,9.98
2023-05-24T06:53:24.162Z,10.03
2023-05-24T06:55:51.697Z,10.07
2023-05-24T06:58:19.281Z,10.20
2023-05-24T07:00:46.950Z,10.24
2023-05-24T07:03:14.596Z,10.33
2023-05-24T07:05:42.461Z,10.42
2023-05-24T07:08:11.549Z,10.49
2023-05-24T07:10:39.289Z,10.57
2023-05-24T07:13:06.881Z,10.64
2023-05-24T07:15:34.444Z,10.70
2023-05-24T07:18:02.055Z,10.81
2023-05-24T07:20:29.706Z,10.90
2023-05-24T07:22:57.295Z,10.98
2023-05-24T07:25:26.181Z,11.05
2023-05-24T07:27:53.745Z,11.12
2023-05-24T07:30:31.616Z,11.18
2023-05-24T07:33:00.182Z,11.27
2023-05-24T07:35:29.262Z,11.37
2023-05-24T07:37:56.858Z,11.42
2023-05-24T07:40:26.701Z,11.43
2023-05-24T07:42:54.658Z,11.46
2023-05-24T07:45:22.896Z,11.50
2023-05-24T07:47:50.539Z,11.53
2023-05-24T07:50:18.992Z,11.58
2023-05-24T07:52:46.547Z,11.61
2023-05-24T07:55:14.480Z,11.62
2023-05-24T07:57:44.017Z,11.61
2023-05-24T08:00:14.483Z,11.66
2023-05-24T08:02:43.967Z,11.68
2023-05-24T08:05:12.743Z,11.70
2023-05-24T08:07:41.645Z,11.73
2023-05-24T08:10:12.521Z,11.73
2023-05-24T08:12:40.450Z,11.77
2023-05-24T08:15:10.756Z,11.76
2023-05-24T08:17:39.454Z,11.76
2023-05-24T08:20:09.689Z,11.80
2023-05-24T08:22:37.959Z,11.75
2023-05-24T08:25:06.651Z,11.76
2023-05-24T08:27:34.773Z,11.74
2023-05-24T08:30:03.900Z,11.83
2023-05-24T08:32:33.135Z,11.90
2023-05-24T08:35:25.999Z,11.98
2023-05-24T08:37:53.542Z,12.01
2023-05-24T08:40:21.384Z,12.04
2023-05-24T08:42:50.831Z,12.06
2023-05-24T08:45:19.371Z,12.10
2023-05-24T08:47:51.286Z,12.15
2023-05-24T08:50:19.368Z,12.16
2023-05-24T08:52:47.363Z,12.17
2023-05-24T08:55:16.334Z,12.15
2023-05-24T08:57:46.446Z,12.18
2023-05-24T09:00:15.099Z,12.20
2023-05-24T09:02:44.355Z,12.22
2023-05-24T09:05:16.713Z,12.25
2023-05-24T09:07:45.909Z,12.27
2023-05-24T09:10:14.139Z,12.31
2023-05-24T09:12:45.976Z,12.36
2023-05-24T09:15:13.555Z,12.38
2023-05-24T09:17:41.609Z,12.40
2023-05-24T09:20:11.400Z,12.40
2023-05-24T09:22:42.846Z,12.38
2023-05-24T09:25:11.860Z,12.38
2023-05-24T09:27:40.449Z,12.37
2023-05-24T09:30:10.421Z,12.36
2023-05-24T09:32:38.387Z,12.38
2023-05-24T09:35:10.350Z,12.39
2023-05-24T09:37:40.588Z,12.43
2023-05-24T09:40:18.370Z,12.44
2023-05-24T09:42:46.382Z,12.49
2023-05-24T09:45:14.394Z,12.53
2023-05-24T09:47:45.039Z,12.62
2023-05-24T09:50:14.348Z,12.70
2023-05-24T09:52:43.621Z,12.78
2023-05-24T09:55:15.143Z,12.86
2023-05-24T09:57:44.623Z,12.95
2023-05-24T10:00:17.332Z,12.99
2023-05-24T10:02:53.452Z,13.04
2023-05-24T10:05:22.444Z,13.06
2023-05-24T10:07:52.987Z,13.11
2023-05-24T10:10:20.752Z,13.15
2023-05-24T10:12:48.576Z,13.17
2023-05-24T10:15:16.631Z,13.20
2023-05-24T10:17:44.321Z,13.17
2023-05-24T10:20:13.149Z,13.12
2023-05-24T10:22:44.391Z,13.05
2023-05-24T10:25:17.073Z,13.04
2023-05-24T10:27:46.581Z,13.01
2023-05-24T10:30:22.168Z,12.97
2023-05-24T10:32:51.328Z,12.96
2023-05-24T10:35:20.220Z,12.95
2023-05-24T10:37:48.404Z,12.94
2023-05-24T10:40:21.573Z,12.96
2023-05-24T10:42:49.584Z,12.97
2023-05-24T10:45:35.594Z,13.00
2023-05-24T10:48:38.870Z,13.02
2023-05-24T10:51:32.717Z,13.05
2023-05-24T10:54:11.856Z,13.06
2023-05-24T10:56:42.600Z,13.12
2023-05-24T10:59:10.610Z,13.13
2023-05-24T11:01:38.219Z,13.17
2023-05-24T11:04:11.918Z,13.21
2023-05-24T11:06:47.312Z,13.22
2023-05-24T11:09:16.063Z,13.20
2023-05-24T11:11:46.216Z,13.16
2023-05-24T11:14:14.634Z,13.13
2023-05-24T11:16:46.674Z,13.12
2023-05-24T11:19:19.582Z,13.14
2023-05-24T11:21:48.593Z,13.13
2023-05-24T11:24:17.792Z,13.14
2023-05-24T11:26:45.961Z,13.15
2023-05-24T11:29:17.668Z,13.13
2023-05-24T11:31:52.519Z,13.10
2023-05-24T11:34:21.926Z,13.13
2023-05-24T11:36:50.118Z,13.16
2023-05-24T11:39:18.104Z,13.21
2023-05-24T11:41:45.757Z,13.23
2023-05-24T11:44:13.507Z,13.27
2023-05-24T11:46:42.445Z,13.30
2023-05-24T11:49:13.652Z,13.29
2023-05-24T11:51:43.290Z,13.31
2023-05-24T11:54:11.737Z,13.31
2023-05-24T11:56:39.980Z,13.38
2023-05-24T11:59:15.780Z,13.41
2023-05-24T12:01:43.964Z,13.48
2023-05-24T12:04:12.206Z,13.53
2023-05-24T12:06:43.311Z,13.60
2023-05-24T12:09:13.484Z,13.66
2023-05-24T12:11:42.583Z,13.71
2023-05-24T12:14:14.472Z,13.75
2023-05-24T12:16:43.827Z,13.81
2023-05-24T12:19:30.884Z,13.84
2023-05-24T12:22:05.916Z,13.83
2023-05-24T12:24:33.976Z,13.84
2023-05-24T12:27:06.524Z,13.81
2023-05-24T12:29:36.465Z,13.82
2023-05-24T12:32:04.912Z,13.80
2023-05-24T12:34:33.560Z,13.78
2023-05-24T12:37:03.688Z,13.78
2023-05-24T12:39:34.036Z,13.79
2023-05-24T12:42:03.060Z,13.81
2023-05-24T12:44:32.804Z,13.83
2023-05-24T12:47:00.644Z,13.85
2023-05-24T12:49:28.261Z,13.86
2023-05-24T12:51:57.428Z,13.85
2023-05-24T12:54:27.647Z,13.85
2023-05-24T12:56:57.466Z,13.89
2023-05-24T12:59:27.265Z,13.94
2023-05-24T13:01:55.007Z,13.96
2023-05-24T13:04:24.311Z,13.98
2023-05-24T13:06:52.092Z,14.01
2023-05-24T13:09:21.585Z,14.04
2023-05-24T13:11:50.697Z,14.05
2023-05-24T13:14:19.554Z,14.05
2023-05-24T13:16:47.481Z,14.06
2023-05-24T13:19:15.205Z,14.09
2023-05-24T13:21:42.920Z,14.13
2023-05-24T13:24:10.657Z,14.14
2023-05-24T13:26:39.110Z,14.17
2023-05-24T13:29:32.349Z,14.16
2023-05-24T13:31:56.357Z,14.22
2023-05-24T13:34:24.611Z,14.26
2023-05-24T13:36:52.619Z,14.29
2023-05-24T13:39:20.380Z,14.33
2023-05-24T13:41:48.360Z,14.36
2023-05-24T13:44:17.738Z,14.42
2023-05-24T13:46:46.121Z,14.46
2023-05-24T13:49:13.858Z,14.50
2023-05-24T13:51:42.042Z,14.53
2023-05-24T13:54:09.677Z,14.57
2023-05-24T13:56:38.500Z,14.62
2023-05-24T13:59:07.502Z,14.67
2023-05-24T14:01:38.384Z,14.73
2023-05-24T14:04:07.802Z,14.83
2023-05-24T14:06:37.437Z,14.95
2023-05-24T14:09:06.515Z,15.12
2023-05-24T14:11:34.220Z,15.21
2023-05-24T14:16:32.592Z,15.31
2023-05-24T14:19:01.628Z,15.33
2023-05-24T14:21:29.247Z,15.36
2023-05-24T14:23:56.825Z,15.37
2023-05-24T14:26:24.575Z,15.38
2023-05-24T14:28:55.271Z,15.34
2023-05-24T14:31:24.035Z,15.22
2023-05-24T14:33:51.741Z,15.16
2023-05-24T14:36:20.824Z,15.17
2023-05-24T14:38:48.461Z,15.17
2023-05-24T14:41:16.225Z,15.18
2023-05-24T14:43:44.416Z,15.18
2023-05-24T14:46:12.046Z,15.21
2023-05-24T14:48:41.366Z,15.17
2023-05-24T14:51:09.163Z,15.21
2023-05-24T14:53:38.190Z,15.25
2023-05-24T14:56:08.160Z,15.26
2023-05-24T14:58:35.837Z,15.28
2023-05-24T15:01:03.722Z,15.30
2023-05-24T15:03:31.589Z,15.38
2023-05-24T15:05:59.800Z,15.51
2023-05-24T15:08:27.772Z,15.59
2023-05-24T15:10:58.860Z,15.67
2023-05-24T15:13:26.921Z,15.75
2023-05-24T15:15:56.493Z,15.84
2023-05-24T15:18:25.426Z,15.96
2023-05-24T15:20:53.217Z,16.11
2023-05-24T15:23:21.624Z,16.17
2023-05-24T15:25:49.368Z,16.16
2023-05-24T15:28:18.497Z,16.17
2023-05-24T15:30:47.020Z,16.15
2023-05-24T15:33:16.808Z,16.15
2023-05-24T15:35:44.651Z,16.14
2023-05-24T15:38:12.697Z,16.14
2023-05-24T15:40:41.908Z,16.21
2023-05-24T15:43:09.761Z,16.27
2023-05-24T15:45:38.680Z,16.32
2023-05-24T15:48:06.430Z,16.36
2023-05-24T15:50:57.260Z,16.37
2023-05-24T15:53:21.918Z,16.37
2023-05-24T15:55:49.647Z,16.36
2023-05-24T15:58:18.271Z,16.33
2023-05-24T16:00:47.206Z,16.29
2023-05-24T16:03:15.692Z,16.28
2023-05-24T16:05:43.683Z,16.26
2023-05-24T16:08:11.330Z,16.18
2023-05-24T16:10:38.885Z,16.09
2023-05-24T16:13:06.604Z,16.02
2023-05-24T16:15:35.825Z,15.98
2023-05-24T16:18:05.102Z,15.96
2023-05-24T16:20:32.796Z,15.93
2023-05-24T16:23:00.545Z,15.90
2023-05-24T16:25:28.179Z,15.89
2023-05-24T16:27:56.321Z,15.86
2023-05-24T16:30:24.042Z,15.84
2023-05-24T16:32:51.696Z,15.81
2023-05-24T16:35:20.715Z,15.79
2023-05-24T16:37:49.743Z,15.77
2023-05-24T16:40:17.410Z,15.75
2023-05-24T16:42:45.012Z,15.73
2023-05-24T16:45:12.611Z,15.70
2023-05-24T16:47:40.446Z,15.67
2023-05-24T16:50:14.606Z,15.66
2023-05-24T16:52:43.664Z,15.64
2023-05-24T16:55:12.617Z,15.62
2023-05-24T16:57:40.380Z,15.59
2023-05-24T17:00:09.710Z,15.57
2023-05-24T17:02:37.550Z,15.57
2023-05-24T17:05:05.557Z,15.52
2023-05-24T17:07:33.154Z,15.50
2023-05-24T17:10:02.143Z,15.49
2023-05-24T17:12:30.372Z,15.48
2023-05-24T17:14:57.952Z,15.47
2023-05-24T17:17:26.211Z,15.45
2023-05-24T17:19:53.956Z,15.43
2023-05-24T17:22:21.649Z,15.40
2023-05-24T17:24:49.394Z,15.32
2023-05-24T17:27:22.092Z,15.28
2023-05-24T17:29:50.276Z,15.27
2023-05-24T17:32:17.934Z,15.25
2023-05-24T17:34:46.638Z,15.23
2023-05-24T17:37:14.316Z,15.22
2023-05-24T17:39:42.015Z,15.21
2023-05-24T17:42:09.603Z,15.19
2023-05-24T17:44:39.226Z,15.19
2023-05-24T17:47:06.848Z,15.19
2023-05-24T17:49:34.561Z,15.17
2023-05-24T17:52:02.153Z,15.17
2023-05-24T17:54:29.719Z,15.15
2023-05-24T17:56:57.459Z,15.15
2023-05-24T17:59:25.051Z,15.13
2023-05-24T18:01:54.150Z,15.13
2023-05-24T18:04:21.814Z,15.14
2023-05-24T18:06:49.410Z,15.14
2023-05-24T18:09:17.109Z,15.15
2023-05-24T18:11:44.674Z,15.15
2023-05-24T18:14:12.592Z,15.12
2023-05-24T18:16:40.278Z,15.09
2023-05-24T18:19:09.258Z,15.08
2023-05-24T18:21:37.411Z,15.08
2023-05-24T18:24:05.035Z,15.07
2023-05-24T18:26:32.728Z,15.04
2023-05-24T18:29:00.322Z,15.03
2023-05-24T18:31:27.912Z,15.01
2023-05-24T18:33:55.582Z,15.00
2023-05-24T18:36:24.875Z,14.99
2023-05-24T18:38:52.704Z,14.96
2023-05-24T18:41:20.331Z,14.95
2023-05-24T18:43:47.900Z,14.93
2023-05-24T18:46:16.237Z,14.91
2023-05-24T18:48:43.997Z,14.88
2023-05-24T18:51:12.771Z,14.86
2023-05-24T18:53:41.798Z,14.82
2023-05-24T18:56:09.593Z,14.81
2023-05-24T18:58:37.243Z,14.79
2023-05-24T19:01:04.973Z,14.76
2023-05-24T19:03:32.642Z,14.73
2023-05-24T19:06:00.279Z,14.70
2023-05-24T19:08:27.886Z,14.68
2023-05-24T19:10:56.846Z,14.66
2023-05-24T19:13:25.743Z,14.63
2023-05-24T19:15:53.728Z,14.59
2023-05-24T19:18:21.515Z,14.55
2023-05-24T19:20:49.463Z,14.51
2023-05-24T19:23:17.207Z,14.47
2023-05-24T19:25:44.953Z,14.43
2023-05-24T19:28:14.004Z,14.37
2023-05-24T19:30:41.581Z,14.32
2023-05-24T19:33:09.259Z,14.28
2023-05-24T19:35:37.336Z,14.20
2023-05-24T19:38:04.933Z,14.15
2023-05-24T19:40:32.562Z,14.08
2023-05-24T19:43:00.237Z,14.01
2023-05-24T19:45:29.333Z,13.94
2023-05-24T19:47:57.025Z,13.89
2023-05-24T19:50:24.653Z,13.82
2023-05-24T19:52:52.245Z,13.76
2023-05-24T19:55:19.913Z,13.69
2023-05-24T19:57:47.523Z,13.62
2023-05-24T20:00:15.542Z,13.54
2023-05-24T20:02:44.645Z,13.46
2023-05-24T20:05:12.468Z,13.39
2023-05-24T20:07:40.854Z,13.28
2023-05-24T20:10:09.602Z,13.21
2023-05-24T20:12:37.181Z,13.14
2023-05-24T20:15:09.570Z,13.07
2023-05-24T20:17:37.252Z,13.00
2023-05-24T20:20:07.444Z,12.92
2023-05-24T20:22:35.058Z,12.85
2023-05-24T20:25:03.293Z,12.78
2023-05-24T20:27:30.893Z,12.71
2023-05-24T20:29:58.600Z,12.65
2023-05-24T20:32:26.208Z,12.60
2023-05-24T20:34:53.864Z,12.52
2023-05-24T20:37:22.801Z,12.48
2023-05-24T20:39:50.569Z,12.41
2023-05-24T20:42:18.303Z,12.38
2023-05-24T20:44:46.015Z,12.34
2023-05-24T20:47:14.866Z,12.28
2023-05-24T20:49:42.473Z,12.25
2023-05-24T20:52:10.079Z,12.22
2023-05-24T20:54:39.122Z,12.18
2023-05-24T20:57:07.134Z,12.15
2023-05-24T20:59:34.848Z,12.11
2023-05-24T21:02:02.521Z,12.09
2023-05-24T21:04:30.149Z,12.05
2023-05-24T21:06:57.760Z,11.99
2023-05-24T21:09:25.372Z,11.96
2023-05-24T21:11:54.377Z,11.92
2023-05-24T21:14:21.991Z,11.88
2023-05-24T21:16:49.644Z,11.86
2023-05-24T21:19:18.125Z,11.83
2023-05-24T21:21:45.828Z,11.81
2023-05-24T21:24:14.631Z,11.78
2023-05-24T21:26:42.318Z,11.77
2023-05-24T21:29:13.114Z,11.75
2023-05-24T21:34:09.724Z,11.72
2023-05-24T21:36:37.545Z,11.72
2023-05-24T21:39:07.862Z,11.69
2023-05-24T21:41:35.524Z,11.68
2023-05-24T21:44:03.765Z,11.68
2023-05-24T21:46:33.556Z,11.67
2023-05-24T21:49:01.229Z,11.65
2023-05-24T21:51:28.804Z,11.61
2023-05-24T21:53:57.093Z,11.58
2023-05-24T21:56:24.781Z,11.54
2023-05-24T21:58:52.377Z,11.50
2023-05-24T22:01:20.046Z,11.47
2023-05-24T22:03:49.211Z,11.44
2023-05-24T22:06:16.869Z,11.42
2023-05-24T22:08:44.406Z,11.39
2023-05-24T22:11:11.965Z,11.37
2023-05-24T22:13:39.549Z,11.34
2023-05-24T22:16:07.993Z,11.30
2023-05-24T22:18:35.640Z,11.29
2023-05-24T22:21:04.630Z,11.25
2023-05-24T22:23:32.754Z,11.23
2023-05-24T22:26:00.329Z,11.21
2023-05-24T22:28:28.847Z,11.18
2023-05-24T22:30:57.311Z,11.17
2023-05-24T22:33:24.882Z,11.15
2023-05-24T22:35:53.277Z,11.13
2023-05-24T22:38:22.613Z,11.11
2023-05-24T22:40:50.458Z,11.09
2023-05-24T22:43:18.068Z,11.07
2023-05-24T22:45:46.072Z,11.05
2023-05-24T22:48:14.448Z,11.01
2023-05-24T22:50:42.202Z,11.01
2023-05-24T22:53:10.065Z,10.97
2023-05-24T22:55:39.153Z,10.93
2023-05-24T22:58:06.745Z,10.89
2023-05-24T23:00:34.465Z,10.85
2023-05-24T23:03:02.118Z,10.83
2023-05-24T23:05:30.372Z,10.79
2023-05-24T23:07:58.202Z,10.75
2023-05-24T23:10:25.859Z,10.71
2023-05-24T23:12:55.176Z,10.66
2023-05-24T23:15:22.840Z,10.61
2023-05-24T23:17:52.718Z,10.57
2023-05-24T23:20:20.807Z,10.53
2023-05-24T23:22:48.417Z,10.49
2023-05-24T23:25:16.191Z,10.46
2023-05-24T23:27:43.810Z,10.41
2023-05-24T23:30:13.045Z,10.37
2023-05-24T23:32:40.702Z,10.35
2023-05-24T23:35:09.398Z,10.34
2023-05-24T23:37:37.202Z,10.33
2023-05-24T23:40:06.628Z,10.32
2023-05-24T23:42:34.448Z,10.32
2023-05-24T23:45:02.207Z,10.31
2023-05-24T23:47:31.394Z,10.30
2023-05-24T23:49:59.075Z,10.30
2023-05-24T23:52:27.029Z,10.28
2023-05-24T23:54:54.640Z,10.27
2023-05-24T23:57:24.815Z,10.26
2023-05-24T23:59:52.733Z,10.25
